createdAt,value
2023-04-27T00:01:00.758Z,55.71
2023-04-27T00:03:28.269Z,55.91
2023-04-27T00:05:55.155Z,55.93
2023-04-27T00:08:21.853Z,56.17
2023-04-27T00:10:48.346Z,56.03
2023-04-27T00:13:14.813Z,55.97
2023-04-27T00:15:41.324Z,56.12
2023-04-27T00:18:07.875Z,56.04
2023-04-27T00:20:34.395Z,56.01
2023-04-27T00:23:00.882Z,55.94
2023-04-27T00:25:27.422Z,55.90
2023-04-27T00:27:53.930Z,55.46
2023-04-27T00:30:20.398Z,55.36
2023-04-27T00:32:46.963Z,55.11
2023-04-27T00:35:13.429Z,55.10
2023-04-27T00:37:39.920Z,54.51
2023-04-27T00:40:07.217Z,54.47
2023-04-27T00:42:34.893Z,54.54
2023-04-27T00:45:01.590Z,54.51
2023-04-27T00:47:30.016Z,54.57
2023-04-27T00:49:56.798Z,54.30
2023-04-27T00:52:23.300Z,54.28
2023-04-27T00:54:51.734Z,54.11
2023-04-27T00:57:18.379Z,53.88
2023-04-27T00:59:44.885Z,54.11
2023-04-27T01:02:11.817Z,54.50
2023-04-27T01:04:38.402Z,54.51
2023-04-27T01:07:04.914Z,54.03
2023-04-27T01:09:31.426Z,54.11
2023-04-27T01:11:58.186Z,53.95
2023-04-27T01:14:24.654Z,53.56
2023-04-27T01:16:52.216Z,53.56
2023-04-27T01:19:18.744Z,54.18
2023-04-27T01:21:45.235Z,54.31
2023-04-27T01:24:11.719Z,54.25
2023-04-27T01:26:38.203Z,54.56
2023-04-27T01:29:04.678Z,54.92
2023-04-27T01:31:31.220Z,54.71
2023-04-27T01:33:57.727Z,54.79
2023-04-27T01:36:24.217Z,54.70
2023-04-27T01:38:50.721Z,54.80
2023-04-27T01:41:17.172Z,54.63
2023-04-27T01:43:43.719Z,54.95
2023-04-27T01:46:12.895Z,54.70
2023-04-27T01:48:40.712Z,55.11
2023-04-27T01:51:07.547Z,54.98
2023-04-27T01:53:34.248Z,55.22
2023-04-27T01:56:00.873Z,55.61
2023-04-27T01:58:27.537Z,55.65
2023-04-27T02:00:54.097Z,55.78
2023-04-27T02:03:20.711Z,55.80
2023-04-27T02:05:47.440Z,55.98
2023-04-27T02:08:14.626Z,56.20
2023-04-27T02:10:41.513Z,56.09
2023-04-27T02:13:08.020Z,56.24
2023-04-27T02:15:34.468Z,56.37
2023-04-27T02:18:01.339Z,56.57
2023-04-27T02:20:30.108Z,56.60
2023-04-27T02:22:56.739Z,56.54
2023-04-27T02:25:23.280Z,56.67
2023-04-27T02:27:49.792Z,56.92
2023-04-27T02:30:16.849Z,56.96
2023-04-27T02:32:43.896Z,56.88
2023-04-27T02:35:10.618Z,57.14
2023-04-27T02:37:37.072Z,57.44
2023-04-27T02:40:04.220Z,57.57
2023-04-27T02:42:30.657Z,57.64
2023-04-27T02:44:57.149Z,57.73
2023-04-27T02:47:23.672Z,57.89
2023-04-27T02:49:50.166Z,58.00
2023-04-27T02:52:16.763Z,58.33
2023-04-27T02:54:43.256Z,58.60
2023-04-27T02:57:09.748Z,58.72
2023-04-27T02:59:36.225Z,58.91
2023-04-27T03:02:02.702Z,59.11
2023-04-27T03:04:29.216Z,59.30
2023-04-27T03:06:55.731Z,59.42
2023-04-27T03:09:22.198Z,59.37
2023-04-27T03:11:48.668Z,59.41
2023-04-27T03:14:15.148Z,59.54
2023-04-27T03:16:41.712Z,59.63
2023-04-27T03:19:08.214Z,59.77
2023-04-27T03:21:34.667Z,59.83
2023-04-27T03:24:01.173Z,59.82
2023-04-27T03:26:27.770Z,59.79
2023-04-27T03:28:54.234Z,59.89
2023-04-27T03:31:20.801Z,60.00
2023-04-27T03:33:47.335Z,60.20
2023-04-27T03:36:13.982Z,60.14
2023-04-27T03:38:40.506Z,60.29
2023-04-27T03:41:07.052Z,60.34
2023-04-27T03:43:33.567Z,60.12
2023-04-27T03:46:00.115Z,60.40
2023-04-27T03:48:26.681Z,60.37
2023-04-27T03:50:53.148Z,60.59
2023-04-27T03:53:19.613Z,60.66
2023-04-27T03:55:46.106Z,60.74
2023-04-27T03:58:12.724Z,60.78
2023-04-27T04:00:39.962Z,60.72
2023-04-27T04:03:07.292Z,60.84
2023-04-27T04:05:34.217Z,60.97
2023-04-27T04:08:00.743Z,60.98
2023-04-27T04:10:27.208Z,60.99
2023-04-27T04:12:53.659Z,60.98
2023-04-27T04:15:20.240Z,60.84
2023-04-27T04:17:46.762Z,60.93
2023-04-27T04:20:13.705Z,60.95
2023-04-27T04:22:40.227Z,60.85
2023-04-27T04:25:07.226Z,60.84
2023-04-27T04:27:33.753Z,60.73
2023-04-27T04:30:00.590Z,60.63
2023-04-27T04:32:27.462Z,60.78
2023-04-27T04:34:53.933Z,60.75
2023-04-27T04:37:20.395Z,60.65
2023-04-27T04:39:46.865Z,60.50
2023-04-27T04:42:13.432Z,60.68
2023-04-27T04:44:39.895Z,60.32
2023-04-27T04:47:06.363Z,60.48
2023-04-27T04:49:32.832Z,60.71
2023-04-27T04:51:59.389Z,60.75
2023-04-27T04:54:25.832Z,60.88
2023-04-27T04:56:52.281Z,60.71
2023-04-27T04:59:18.777Z,60.62
2023-04-27T05:01:45.248Z,60.58
2023-04-27T05:04:11.944Z,60.34
2023-04-27T05:06:38.613Z,60.46
2023-04-27T05:09:05.096Z,60.37
2023-04-27T05:11:31.688Z,60.46
2023-04-27T05:13:58.138Z,60.52
2023-04-27T05:16:24.674Z,59.96
2023-04-27T05:18:51.181Z,59.56
2023-04-27T05:21:17.828Z,59.16
2023-04-27T05:23:44.329Z,58.85
2023-04-27T05:26:15.387Z,58.28
2023-04-27T05:28:42.605Z,58.12
2023-04-27T05:31:09.305Z,57.13
2023-04-27T05:33:35.798Z,56.59
2023-04-27T05:36:02.433Z,56.15
2023-04-27T05:38:28.891Z,55.67
2023-04-27T05:40:58.452Z,55.32
2023-04-27T05:43:25.591Z,55.22
2023-04-27T05:45:52.891Z,54.82
2023-04-27T05:48:20.028Z,54.74
2023-04-27T05:50:46.630Z,54.54
2023-04-27T05:53:13.110Z,53.70
2023-04-27T05:55:39.599Z,53.61
2023-04-27T05:58:08.647Z,53.30
2023-04-27T06:00:35.946Z,53.17
2023-04-27T06:03:02.589Z,52.76
2023-04-27T06:05:29.317Z,51.91
2023-04-27T06:07:55.893Z,51.41
2023-04-27T06:10:22.478Z,50.91
2023-04-27T06:12:48.975Z,50.59
2023-04-27T06:15:15.504Z,49.89
2023-04-27T06:17:42.074Z,49.24
2023-04-27T06:20:08.796Z,48.89
2023-04-27T06:22:38.859Z,49.03
2023-04-27T06:25:06.256Z,47.86
2023-04-27T06:27:33.598Z,47.47
2023-04-27T06:30:00.066Z,47.87
2023-04-27T06:32:26.633Z,47.12
2023-04-27T06:34:53.116Z,45.93
2023-04-27T06:37:19.647Z,44.36
2023-04-27T06:39:46.846Z,45.15
2023-04-27T06:42:13.523Z,45.29
2023-04-27T06:44:40.064Z,44.47
2023-04-27T06:47:06.597Z,43.97
2023-04-27T06:49:33.087Z,43.93
2023-04-27T06:52:02.100Z,42.71
2023-04-27T06:54:28.652Z,42.29
2023-04-27T06:56:55.145Z,41.66
2023-04-27T06:59:21.698Z,41.72
2023-04-27T07:01:48.246Z,41.92
2023-04-27T07:04:15.016Z,41.77
2023-04-27T07:06:41.587Z,41.13
2023-04-27T07:09:13.493Z,39.97
2023-04-27T07:11:52.881Z,39.80
2023-04-27T07:14:19.392Z,40.60
2023-04-27T07:16:45.852Z,40.10
2023-04-27T07:19:12.679Z,40.61
2023-04-27T07:21:39.472Z,40.62
2023-04-27T07:24:06.296Z,40.77
2023-04-27T07:26:32.737Z,40.36
2023-04-27T07:28:59.260Z,40.47
2023-04-27T07:31:25.794Z,40.45
2023-04-27T07:33:52.242Z,40.26
2023-04-27T07:36:18.816Z,40.36
2023-04-27T07:38:45.369Z,40.09
2023-04-27T07:41:11.857Z,40.37
2023-04-27T07:43:38.342Z,39.47
2023-04-27T07:46:04.999Z,39.75
2023-04-27T07:48:31.489Z,38.07
2023-04-27T07:50:58.116Z,37.40
2023-04-27T07:53:24.650Z,36.64
2023-04-27T07:55:51.108Z,37.27
2023-04-27T07:58:18.109Z,37.08
2023-04-27T08:00:44.639Z,37.00
2023-04-27T08:03:11.303Z,35.79
2023-04-27T08:05:38.359Z,35.24
2023-04-27T08:08:05.662Z,34.42
2023-04-27T08:10:32.287Z,34.85
2023-04-27T08:12:58.766Z,32.98
2023-04-27T08:15:25.379Z,32.89
2023-04-27T08:17:51.820Z,31.92
2023-04-27T08:20:18.394Z,30.86
2023-04-27T08:22:44.892Z,31.82
2023-04-27T08:25:11.374Z,32.40
2023-04-27T08:27:39.062Z,32.02
2023-04-27T08:30:06.287Z,32.57
2023-04-27T08:32:32.828Z,32.58
2023-04-27T08:34:59.502Z,32.20
2023-04-27T08:37:26.036Z,31.20
2023-04-27T08:39:52.516Z,30.89
2023-04-27T08:42:18.987Z,30.66
2023-04-27T08:44:45.476Z,30.49
2023-04-27T08:47:12.039Z,30.27
2023-04-27T08:49:38.915Z,30.40
2023-04-27T08:52:11.654Z,30.47
2023-04-27T08:54:38.172Z,29.10
2023-04-27T08:57:15.384Z,28.42
2023-04-27T08:59:42.547Z,28.71
2023-04-27T09:02:19.740Z,29.12
2023-04-27T09:04:46.465Z,27.78
2023-04-27T09:07:17.689Z,29.01
2023-04-27T09:09:45.211Z,29.06
2023-04-27T09:12:19.326Z,29.85
2023-04-27T09:15:06.489Z,28.92
2023-04-27T09:17:33.065Z,28.26
2023-04-27T09:20:07.345Z,28.59
2023-04-27T09:22:42.775Z,28.70
2023-04-27T09:25:09.386Z,27.68
2023-04-27T09:27:38.641Z,28.03
2023-04-27T09:30:15.025Z,28.56
2023-04-27T09:32:59.756Z,29.00
2023-04-27T09:35:28.792Z,28.80
2023-04-27T09:37:56.040Z,29.02
2023-04-27T09:40:25.391Z,29.75
2023-04-27T09:42:52.172Z,29.97
2023-04-27T09:45:19.080Z,29.17
2023-04-27T09:47:46.134Z,28.86
2023-04-27T09:50:14.059Z,29.09
2023-04-27T09:52:40.877Z,28.47
2023-04-27T09:55:13.666Z,28.09
2023-04-27T09:58:00.401Z,27.47
2023-04-27T10:00:48.518Z,27.50
2023-04-27T10:03:33.246Z,27.83
2023-04-27T10:06:27.482Z,28.42
2023-04-27T10:08:55.840Z,28.26
2023-04-27T10:11:37.863Z,28.84
2023-04-27T10:14:07.330Z,27.41
2023-04-27T10:16:47.388Z,28.41
2023-04-27T10:19:14.309Z,29.15
2023-04-27T10:22:01.227Z,29.08
2023-04-27T10:24:41.599Z,27.75
2023-04-27T10:27:15.973Z,26.03
2023-04-27T10:29:44.172Z,26.18
2023-04-27T10:32:13.381Z,26.29
2023-04-27T10:34:40.566Z,26.27
2023-04-27T10:37:11.138Z,26.30
2023-04-27T10:39:47.676Z,25.15
2023-04-27T10:42:26.795Z,22.58
2023-04-27T10:44:57.125Z,22.12
2023-04-27T10:47:23.707Z,21.65
2023-04-27T10:49:53.897Z,20.74
2023-04-27T10:52:20.488Z,19.11
2023-04-27T10:54:47.075Z,18.10
2023-04-27T10:57:14.384Z,19.03
2023-04-27T10:59:51.927Z,19.42
2023-04-27T11:02:25.976Z,19.58
2023-04-27T11:04:52.607Z,19.45
2023-04-27T11:07:26.722Z,19.92
2023-04-27T11:09:53.633Z,19.99
2023-04-27T11:12:20.208Z,19.39
2023-04-27T11:14:46.734Z,20.20
2023-04-27T11:17:13.423Z,20.74
2023-04-27T11:19:47.496Z,21.47
2023-04-27T11:22:15.439Z,22.11
2023-04-27T11:24:52.529Z,22.01
2023-04-27T11:27:19.792Z,22.37
2023-04-27T11:29:46.314Z,21.68
2023-04-27T11:32:19.743Z,22.12
2023-04-27T11:34:54.751Z,24.02
2023-04-27T11:37:24.834Z,23.41
2023-04-27T11:39:52.212Z,23.51
2023-04-27T11:42:20.015Z,24.22
2023-04-27T11:45:00.682Z,23.00
2023-04-27T11:47:29.788Z,23.78
2023-04-27T11:49:58.643Z,23.98
2023-04-27T11:52:32.794Z,23.63
2023-04-27T11:55:01.029Z,23.37
2023-04-27T11:57:30.244Z,24.10
2023-04-27T11:59:58.266Z,24.40
2023-04-27T12:02:24.801Z,25.16
2023-04-27T12:04:51.908Z,24.87
2023-04-27T12:07:19.484Z,25.83
2023-04-27T12:09:46.082Z,25.62
2023-04-27T12:12:13.215Z,24.98
2023-04-27T12:14:40.043Z,25.08
2023-04-27T12:17:06.639Z,24.99
2023-04-27T12:19:33.300Z,25.05
2023-04-27T12:21:59.883Z,25.31
2023-04-27T12:24:26.342Z,25.24
2023-04-27T12:26:52.877Z,25.27
2023-04-27T12:29:19.514Z,25.56
2023-04-27T12:31:46.269Z,25.74
2023-04-27T12:34:13.110Z,25.51
2023-04-27T12:36:39.861Z,26.15
2023-04-27T12:39:17.893Z,26.78
2023-04-27T12:41:45.471Z,25.76
2023-04-27T12:44:13.336Z,24.87
2023-04-27T12:46:41.240Z,25.46
2023-04-27T12:49:08.558Z,26.46
2023-04-27T12:51:35.598Z,27.35
2023-04-27T12:54:06.136Z,26.77
2023-04-27T12:56:33.479Z,25.29
2023-04-27T12:58:59.951Z,25.00
2023-04-27T13:01:27.141Z,25.92
2023-04-27T13:03:55.150Z,25.97
2023-04-27T13:06:22.127Z,24.53
2023-04-27T13:08:49.761Z,24.41
2023-04-27T13:11:16.985Z,24.46
2023-04-27T13:13:44.546Z,23.95
2023-04-27T13:16:11.914Z,24.64
2023-04-27T13:18:39.352Z,24.31
2023-04-27T13:21:05.898Z,24.61
2023-04-27T13:23:32.693Z,24.43
2023-04-27T13:25:59.176Z,24.53
2023-04-27T13:28:25.743Z,24.39
2023-04-27T13:30:52.251Z,23.89
2023-04-27T13:33:23.385Z,23.85
2023-04-27T13:35:50.808Z,23.77
2023-04-27T13:38:17.465Z,23.70
2023-04-27T13:40:44.078Z,23.21
2023-04-27T13:43:10.552Z,23.18
2023-04-27T13:45:37.202Z,23.51
2023-04-27T13:48:03.821Z,23.43
2023-04-27T13:50:30.368Z,24.34
2023-04-27T13:52:56.881Z,24.56
2023-04-27T13:55:23.537Z,24.14
2023-04-27T13:57:49.998Z,24.45
2023-04-27T14:00:16.916Z,24.60
2023-04-27T14:02:43.540Z,24.15
2023-04-27T14:05:10.210Z,24.23
2023-04-27T14:07:36.904Z,24.37
2023-04-27T14:10:04.557Z,25.02
2023-04-27T14:12:31.991Z,24.92
2023-04-27T14:14:59.176Z,24.49
2023-04-27T14:17:25.682Z,24.93
2023-04-27T14:19:52.251Z,24.86
2023-04-27T14:22:18.773Z,24.65
2023-04-27T14:24:45.291Z,24.57
2023-04-27T14:27:11.767Z,24.21
2023-04-27T14:29:38.347Z,24.83
2023-04-27T14:32:05.065Z,25.18
2023-04-27T14:34:31.658Z,26.04
2023-04-27T14:36:58.166Z,25.45
2023-04-27T14:39:24.622Z,26.77
2023-04-27T14:41:51.095Z,26.44
2023-04-27T14:44:17.568Z,25.76
2023-04-27T14:46:44.130Z,25.45
2023-04-27T14:49:10.886Z,25.19
2023-04-27T14:51:37.371Z,24.99
2023-04-27T14:54:03.937Z,24.83
2023-04-27T14:56:30.615Z,24.66
2023-04-27T14:58:57.224Z,24.65
2023-04-27T15:01:23.739Z,24.51
2023-04-27T15:03:50.386Z,24.31
2023-04-27T15:06:16.945Z,24.69
2023-04-27T15:08:43.675Z,24.52
2023-04-27T15:11:10.202Z,24.77
2023-04-27T15:13:36.697Z,25.00
2023-04-27T15:16:03.300Z,25.70
2023-04-27T15:18:29.809Z,25.66
2023-04-27T15:20:58.084Z,25.61
2023-04-27T15:23:26.227Z,25.33
2023-04-27T15:25:57.294Z,25.74
2023-04-27T15:28:23.990Z,25.61
2023-04-27T15:30:50.615Z,25.53
2023-04-27T15:33:17.625Z,25.17
2023-04-27T15:35:44.311Z,25.82
2023-04-27T15:38:12.671Z,25.85
2023-04-27T15:40:39.829Z,25.68
2023-04-27T15:43:06.666Z,25.67
2023-04-27T15:45:33.605Z,25.95
2023-04-27T15:48:00.180Z,26.08
2023-04-27T15:50:26.694Z,26.22
2023-04-27T15:52:53.445Z,26.15
2023-04-27T15:55:19.947Z,26.04
2023-04-27T15:57:46.447Z,26.31
2023-04-27T16:00:13.619Z,26.15
2023-04-27T16:02:40.612Z,25.62
2023-04-27T16:05:08.499Z,25.60
2023-04-27T16:07:36.186Z,25.68
2023-04-27T16:10:03.904Z,25.47
2023-04-27T16:12:30.513Z,25.76
2023-04-27T16:14:57.242Z,26.11
2023-04-27T16:17:24.871Z,26.40
2023-04-27T16:19:51.395Z,27.03
2023-04-27T16:22:17.878Z,27.50
2023-04-27T16:24:44.527Z,27.39
2023-04-27T16:27:11.057Z,27.45
2023-04-27T16:29:37.530Z,27.52
2023-04-27T16:32:04.131Z,27.76
2023-04-27T16:34:30.641Z,28.32
2023-04-27T16:36:57.144Z,27.74
2023-04-27T16:39:23.602Z,27.81
2023-04-27T16:41:50.132Z,27.91
2023-04-27T16:44:16.655Z,27.79
2023-04-27T16:46:43.345Z,28.20
2023-04-27T16:49:10.238Z,28.09
2023-04-27T16:51:36.721Z,28.44
2023-04-27T16:54:03.273Z,28.52
2023-04-27T16:56:32.092Z,28.87
2023-04-27T16:58:58.878Z,29.00
2023-04-27T17:01:25.628Z,29.21
2023-04-27T17:03:52.256Z,29.62
2023-04-27T17:06:18.938Z,29.66
2023-04-27T17:08:45.446Z,29.37
2023-04-27T17:11:12.158Z,29.71
2023-04-27T17:13:38.674Z,30.41
2023-04-27T17:16:05.532Z,29.81
2023-04-27T17:18:32.171Z,30.07
2023-04-27T17:20:58.678Z,30.23
2023-04-27T17:23:25.290Z,30.36
2023-04-27T17:25:51.737Z,30.37
2023-04-27T17:28:18.221Z,30.44
2023-04-27T17:30:44.739Z,30.56
2023-04-27T17:33:11.341Z,30.71
2023-04-27T17:35:37.890Z,31.56
2023-04-27T17:38:04.407Z,31.93
2023-04-27T17:40:30.941Z,32.23
2023-04-27T17:42:57.479Z,32.73
2023-04-27T17:45:24.024Z,32.70
2023-04-27T17:47:50.512Z,32.76
2023-04-27T17:50:17.318Z,33.32
2023-04-27T17:52:43.776Z,33.55
2023-04-27T17:55:10.240Z,33.91
2023-04-27T17:57:36.705Z,33.98
2023-04-27T18:00:03.433Z,34.48
2023-04-27T18:02:30.021Z,34.65
2023-04-27T18:04:56.615Z,34.61
2023-04-27T18:07:23.421Z,34.81
2023-04-27T18:09:49.926Z,35.38
2023-04-27T18:12:16.433Z,35.66
2023-04-27T18:14:42.923Z,35.74
2023-04-27T18:17:09.399Z,35.79
2023-04-27T18:19:35.848Z,36.18
2023-04-27T18:22:02.356Z,36.59
2023-04-27T18:24:28.890Z,36.79
2023-04-27T18:26:55.352Z,37.16
2023-04-27T18:29:21.877Z,37.36
2023-04-27T18:31:48.402Z,37.83
2023-04-27T18:34:14.880Z,37.90
2023-04-27T18:36:42.383Z,38.42
2023-04-27T18:39:08.874Z,38.73
2023-04-27T18:41:35.403Z,38.50
2023-04-27T18:44:05.766Z,38.82
2023-04-27T18:46:32.975Z,38.74
2023-04-27T18:49:01.045Z,39.31
2023-04-27T18:51:27.899Z,39.65
2023-04-27T18:53:57.528Z,39.81
2023-04-27T18:56:24.214Z,39.99
2023-04-27T18:58:50.738Z,40.53
2023-04-27T19:01:22.142Z,40.83
2023-04-27T19:03:48.933Z,41.31
2023-04-27T19:06:15.887Z,41.66
2023-04-27T19:08:43.695Z,42.14
2023-04-27T19:11:11.331Z,42.53
2023-04-27T19:13:37.952Z,42.91
2023-04-27T19:16:04.612Z,43.13
2023-04-27T19:18:31.176Z,43.38
2023-04-27T19:20:57.690Z,43.90
2023-04-27T19:23:24.197Z,44.16
2023-04-27T19:25:51.849Z,44.05
2023-04-27T19:28:21.624Z,44.63
2023-04-27T19:30:48.998Z,44.82
2023-04-27T19:33:16.564Z,44.70
2023-04-27T19:35:44.078Z,45.15
2023-04-27T19:38:10.775Z,45.29
2023-04-27T19:40:37.259Z,45.38
2023-04-27T19:43:04.026Z,45.56
2023-04-27T19:45:30.615Z,45.59
2023-04-27T19:47:57.182Z,45.38
2023-04-27T19:50:23.719Z,46.17
2023-04-27T19:52:50.731Z,46.49
2023-04-27T19:55:17.371Z,46.78
2023-04-27T19:57:43.832Z,47.08
2023-04-27T20:00:10.848Z,47.27
2023-04-27T20:02:37.599Z,47.23
2023-04-27T20:05:05.235Z,47.36
2023-04-27T20:07:32.058Z,47.54
2023-04-27T20:09:58.518Z,47.74
2023-04-27T20:12:44.059Z,47.72
2023-04-27T20:15:11.475Z,47.83
2023-04-27T20:17:38.016Z,48.19
2023-04-27T20:20:04.913Z,48.35
2023-04-27T20:22:31.460Z,48.81
2023-04-27T20:24:58.855Z,49.02
2023-04-27T20:27:25.383Z,49.27
2023-04-27T20:29:51.872Z,49.62
2023-04-27T20:32:18.435Z,49.73
2023-04-27T20:34:44.910Z,49.87
2023-04-27T20:37:11.369Z,50.23
2023-04-27T20:39:37.873Z,50.37
2023-04-27T20:42:04.474Z,50.73
2023-04-27T20:44:30.987Z,50.94
2023-04-27T20:46:57.545Z,51.16
2023-04-27T20:49:34.416Z,51.29
2023-04-27T20:52:01.759Z,51.59
2023-04-27T20:54:28.434Z,51.58
2023-04-27T20:56:54.973Z,51.54
2023-04-27T20:59:21.516Z,51.76
2023-04-27T21:01:47.986Z,51.99
2023-04-27T21:04:14.815Z,52.25
2023-04-27T21:06:41.515Z,52.41
2023-04-27T21:09:08.053Z,52.59
2023-04-27T21:11:34.504Z,52.83
2023-04-27T21:14:00.994Z,53.03
2023-04-27T21:16:27.524Z,53.29
2023-04-27T21:18:54.533Z,53.44
2023-04-27T21:21:20.995Z,53.54
2023-04-27T21:23:49.871Z,53.55
2023-04-27T21:26:20.955Z,53.78
2023-04-27T21:28:47.437Z,53.99
2023-04-27T21:31:14.028Z,54.07
2023-04-27T21:33:40.564Z,54.17
2023-04-27T21:36:07.180Z,54.25
2023-04-27T21:38:33.648Z,54.43
2023-04-27T21:41:00.177Z,54.41
2023-04-27T21:43:26.674Z,54.56
2023-04-27T21:45:53.208Z,54.63
2023-04-27T21:48:19.714Z,54.42
2023-04-27T21:50:46.205Z,54.76
2023-04-27T21:53:12.663Z,54.84
2023-04-27T21:55:39.161Z,54.62
2023-04-27T21:58:05.649Z,54.89
2023-04-27T22:00:32.167Z,55.26
2023-04-27T22:02:59.098Z,55.34
2023-04-27T22:05:25.701Z,55.08
2023-04-27T22:07:52.212Z,55.24
2023-04-27T22:10:18.750Z,55.13
2023-04-27T22:12:45.245Z,55.39
2023-04-27T22:15:11.716Z,55.62
2023-04-27T22:17:38.280Z,55.66
2023-04-27T22:20:06.139Z,55.80
2023-04-27T22:22:32.644Z,55.95
2023-04-27T22:24:59.174Z,55.89
2023-04-27T22:27:29.984Z,56.07
2023-04-27T22:30:01.978Z,56.26
2023-04-27T22:32:28.861Z,56.29
2023-04-27T22:34:55.449Z,56.30
2023-04-27T22:37:21.962Z,56.61
2023-04-27T22:39:48.682Z,56.85
2023-04-27T22:42:15.229Z,56.84
2023-04-27T22:44:41.838Z,57.10
2023-04-27T22:47:08.545Z,57.31
2023-04-27T22:49:35.075Z,57.37
2023-04-27T22:52:01.548Z,57.55
2023-04-27T22:54:28.170Z,57.58
2023-04-27T22:56:54.827Z,57.52
2023-04-27T22:59:21.365Z,57.69
2023-04-27T23:01:48.100Z,57.76
2023-04-27T23:04:14.910Z,57.94
2023-04-27T23:06:41.645Z,58.05
2023-04-27T23:09:08.384Z,58.14
2023-04-27T23:11:34.901Z,58.27
2023-04-27T23:14:01.360Z,58.37
2023-04-27T23:16:27.884Z,58.34
2023-04-27T23:18:54.471Z,58.37
2023-04-27T23:21:20.942Z,58.59
2023-04-27T23:23:47.538Z,58.74
2023-04-27T23:26:14.795Z,58.80
2023-04-27T23:28:41.471Z,58.84
2023-04-27T23:31:08.453Z,58.85
2023-04-27T23:33:35.401Z,59.06
2023-04-27T23:36:02.301Z,58.97
2023-04-27T23:38:28.799Z,58.88
2023-04-27T23:40:55.333Z,59.05
2023-04-27T23:43:21.796Z,58.97
2023-04-27T23:45:52.378Z,58.98
2023-04-27T23:48:19.635Z,58.94
2023-04-27T23:50:46.184Z,58.91
2023-04-27T23:53:12.743Z,59.24
2023-04-27T23:55:39.225Z,59.25
2023-04-27T23:58:05.716Z,59.33
